Time;durP1;ratioP1;P1;durP2;ratioP2;P2;SDS_P1;SDS_P2;PMS_P1;PMS_P2;Temp;Humidity;BMP_temperature;BMP_pressure;BME280_temperature;BME280_humidity;BME280_pressure;Samples;Min_cycle;Max_cycle;Signal;HPM_P1;HPM_P2
2023/07/08 04:01:31;;;;;;;3.50;2.67;;;23.00;54.00;;;;;;5603438;23;21039;-74
2023/07/08 04:03:59;;;;;;;3.10;2.77;;;23.00;53.90;;;;;;4995035;28;20446;-73
2023/07/08 04:06:28;;;;;;;3.33;2.93;;;23.10;53.60;;;;;;4994904;28;20453;-73
2023/07/08 04:08:55;;;;;;;3.50;3.20;;;23.20;53.70;;;;;;4994721;28;20963;-74
2023/07/08 04:11:24;;;;;;;3.07;2.47;;;23.30;54.50;;;;;;5002931;28;20471;-74
2023/07/08 04:13:51;;;;;;;3.00;2.70;;;23.40;54.60;;;;;;5022162;23;20500;-74
2023/07/08 04:16:20;;;;;;;3.57;2.67;;;23.50;53.50;;;;;;4994269;28;20504;-74
2023/07/08 04:18:50;;;;;;;2.50;2.30;;;23.50;53.10;;;;;;4994216;28;20453;-74
2023/07/08 04:21:17;;;;;;;3.77;3.17;;;23.60;54.20;;;;;;4994142;28;20797;-74
2023/07/08 04:23:44;;;;;;;3.60;2.70;;;23.60;53.90;;;;;;5000702;28;20471;-74
2023/07/08 04:26:10;;;;;;;3.33;3.03;;;23.70;53.90;;;;;;5013507;28;20499;-74
2023/07/08 04:28:37;;;;;;;3.40;3.10;;;23.60;54.40;;;;;;5013694;28;20475;-74
2023/07/08 04:31:04;;;;;;;3.13;2.83;;;23.60;54.10;;;;;;5013709;28;20448;-74
2023/07/08 04:33:31;;;;;;;3.20;2.40;;;23.80;53.40;;;;;;5013524;28;20484;-74
2023/07/08 04:35:59;;;;;;;3.30;3.00;;;23.90;52.90;;;;;;5013937;28;20444;-74
2023/07/08 04:38:27;;;;;;;3.20;2.90;;;24.10;53.20;;;;;;5013602;28;20507;-74
2023/07/08 04:40:54;;;;;;;3.53;3.00;;;24.20;53.50;;;;;;5013582;28;20444;-74
2023/07/08 04:43:22;;;;;;;3.03;2.73;;;24.20;53.00;;;;;;5013195;28;20977;-74
2023/07/08 04:45:51;;;;;;;3.13;2.50;;;23.90;53.10;;;;;;5013505;28;20444;-74
2023/07/08 04:48:21;;;;;;;3.17;2.67;;;23.60;53.30;;;;;;5013521;28;20498;-74
2023/07/08 04:50:49;;;;;;;4.13;3.37;;;23.60;54.30;;;;;;5013471;28;20492;-74
2023/07/08 04:53:18;;;;;;;3.20;2.57;;;23.50;53.50;;;;;;5013292;28;20484;-74
2023/07/08 04:55:48;;;;;;;3.57;3.03;;;23.70;52.70;;;;;;5013394;28;20448;-74
2023/07/08 04:58:14;;;;;;;3.40;3.10;;;23.80;52.60;;;;;;5013430;28;20455;-74
2023/07/08 05:00:41;;;;;;;3.17;2.83;;;24.10;52.50;;;;;;5013400;28;20448;-74
2023/07/08 05:03:08;;;;;;;3.13;2.80;;;24.20;50.90;;;;;;5013322;28;20444;-74
2023/07/08 05:05:34;;;;;;;3.67;2.90;;;24.10;51.70;;;;;;5013375;28;20874;-74
2023/07/08 05:08:01;;;;;;;3.00;2.70;;;24.10;50.40;;;;;;5016308;28;20989;-74
2023/07/08 05:10:29;;;;;;;3.23;2.93;;;24.10;51.30;;;;;;5017261;28;20444;-74
2023/07/08 05:12:56;;;;;;;3.37;2.77;;;24.00;51.00;;;;;;5017176;28;20444;-74
2023/07/08 05:15:23;;;;;;;3.70;2.90;;;24.00;50.70;;;;;;5017058;28;20506;-74
2023/07/08 05:17:51;;;;;;;4.00;3.17;;;24.00;50.90;;;;;;5017137;28;20448;-73
2023/07/08 05:20:19;;;;;;;3.50;3.00;;;23.90;51.10;;;;;;5017091;28;20538;-74
2023/07/08 05:22:46;;;;;;;3.07;2.77;;;23.90;52.50;;;;;;5017064;28;20502;-74
2023/07/08 05:25:13;;;;;;;3.60;2.43;;;23.90;52.10;;;;;;5016964;28;20817;-73
2023/07/08 05:27:41;;;;;;;3.10;2.80;;;24.20;51.80;;;;;;5016689;28;20872;-74
2023/07/08 05:30:12;;;;;;;3.20;2.87;;;24.40;51.90;;;;;;5016886;28;20456;-74
2023/07/08 05:32:39;;;;;;;4.60;3.10;;;24.40;51.40;;;;;;5017410;28;20440;-74
2023/07/08 05:35:06;;;;;;;3.77;3.23;;;24.50;51.60;;;;;;5016707;28;20542;-74
2023/07/08 05:37:32;;;;;;;3.20;2.90;;;24.50;51.30;;;;;;5016789;28;20827;-73
2023/07/08 05:40:02;;;;;;;3.27;2.97;;;24.50;51.40;;;;;;5016752;28;20483;-74
2023/07/08 05:42:29;;;;;;;4.17;3.43;;;24.60;51.30;;;;;;5016434;28;20952;-74
2023/07/08 05:44:56;;;;;;;2.87;2.50;;;24.50;51.10;;;;;;5016629;28;20600;-74
2023/07/08 05:47:23;;;;;;;3.20;2.90;;;24.30;51.90;;;;;;5016607;28;20452;-74
2023/07/08 05:49:50;;;;;;;3.40;3.07;;;24.40;52.20;;;;;;5016851;28;20452;-74
2023/07/08 05:52:17;;;;;;;3.37;3.00;;;24.40;51.60;;;;;;5016513;28;20498;-74
2023/07/08 05:54:43;;;;;;;3.97;3.23;;;24.20;52.30;;;;;;5016324;28;20510;-74
2023/07/08 05:57:12;;;;;;;3.53;3.03;;;24.30;52.70;;;;;;5016436;28;20452;-74
2023/07/08 05:59:39;;;;;;;3.87;3.20;;;24.40;52.50;;;;;;5016391;28;20452;-74
2023/07/08 06:02:09;;;;;;;4.70;3.13;;;24.40;53.70;;;;;;5016352;28;20448;-74
2023/07/08 06:04:36;;;;;;;4.13;3.23;;;24.40;53.50;;;;;;5016239;28;20869;-73
2023/07/08 06:07:03;;;;;;;3.10;2.80;;;24.60;52.80;;;;;;5015945;28;20801;-73
2023/07/08 06:09:30;;;;;;;4.20;3.60;;;24.60;53.60;;;;;;5016167;28;20453;-74
2023/07/08 06:11:56;;;;;;;3.13;2.80;;;24.50;52.70;;;;;;5016155;28;20463;-73
2023/07/08 06:14:23;;;;;;;3.33;2.90;;;24.70;54.20;;;;;;5015733;28;20491;-74
2023/07/08 06:16:50;;;;;;;3.37;2.93;;;24.80;52.70;;;;;;5015760;28;20867;-74
2023/07/08 06:19:18;;;;;;;4.57;3.20;;;25.10;53.00;;;;;;5015345;28;20877;-74
2023/07/08 06:21:44;;;;;;;3.63;3.10;;;25.20;52.30;;;;;;5015975;28;20862;-74
2023/07/08 06:24:11;;;;;;;3.90;2.87;;;25.10;52.30;;;;;;5015854;28;20467;-74
2023/07/08 06:26:38;;;;;;;3.17;2.80;;;25.10;51.80;;;;;;5015888;28;20452;-74
2023/07/08 06:29:05;;;;;;;4.20;2.70;;;25.10;52.40;;;;;;5015828;28;20444;-74
2023/07/08 06:31:31;;;;;;;3.63;3.23;;;25.30;52.80;;;;;;5015740;28;20457;-74
2023/07/08 06:33:58;;;;;;;4.30;2.87;;;25.40;52.60;;;;;;5015643;28;20476;-74
2023/07/08 06:36:26;;;;;;;2.90;2.60;;;25.80;53.10;;;;;;5015722;28;20444;-74
2023/07/08 06:38:53;;;;;;;4.23;2.60;;;26.00;52.20;;;;;;5015635;28;20444;-74
2023/07/08 06:41:20;;;;;;;3.10;2.50;;;26.20;52.10;;;;;;5015629;28;20948;-74
2023/07/08 06:43:46;;;;;;;4.17;2.70;;;26.30;50.80;;;;;;5015501;28;20530;-74
2023/07/08 06:46:13;;;;;;;3.67;2.70;;;26.50;51.30;;;;;;5015533;28;20503;-74
2023/07/08 06:48:40;;;;;;;2.93;2.63;;;26.70;51.70;;;;;;5015425;28;20539;-74
2023/07/08 06:51:07;;;;;;;2.97;2.60;;;26.60;51.90;;;;;;5015519;28;20449;-74
2023/07/08 06:53:35;;;;;;;4.33;2.97;;;26.70;52.00;;;;;;5015239;28;20487;-74
2023/07/08 06:56:02;;;;;;;3.00;2.67;;;26.80;50.80;;;;;;5015351;28;20462;-74
2023/07/08 06:58:29;;;;;;;4.07;3.13;;;26.90;51.10;;;;;;5015340;28;20483;-74
2023/07/08 07:00:56;;;;;;;3.23;2.93;;;27.00;50.20;;;;;;5015244;28;20483;-74
2023/07/08 07:03:22;;;;;;;2.50;2.30;;;27.00;51.60;;;;;;5014863;28;21051;-74
2023/07/08 07:05:49;;;;;;;2.83;2.33;;;26.90;50.20;;;;;;5015169;28;20449;-74
2023/07/08 07:08:16;;;;;;;4.90;3.03;;;27.00;50.50;;;;;;5015081;28;20448;-74
2023/07/08 07:10:44;;;;;;;2.43;2.07;;;26.80;50.80;;;;;;5015301;28;20456;-74
2023/07/08 07:13:11;;;;;;;3.73;2.37;;;26.90;50.70;;;;;;5014883;28;20448;-74
2023/07/08 07:15:37;;;;;;;5.30;2.67;;;27.00;51.00;;;;;;5014867;28;20488;-74
2023/07/08 07:18:04;;;;;;;3.93;2.80;;;26.70;51.10;;;;;;5014913;28;20448;-74
2023/07/08 07:20:31;;;;;;;3.53;2.10;;;26.80;52.40;;;;;;5014870;28;20499;-74
2023/07/08 07:22:58;;;;;;;3.00;2.30;;;27.00;52.00;;;;;;5014647;28;20478;-74
2023/07/08 07:25:25;;;;;;;3.40;2.27;;;27.00;51.50;;;;;;5014783;28;20452;-74
2023/07/08 07:27:53;;;;;;;2.73;2.30;;;27.10;51.80;;;;;;5014361;28;20937;-73
2023/07/08 07:30:19;;;;;;;2.73;2.37;;;27.00;51.10;;;;;;5013724;28;20455;-74
2023/07/08 07:32:46;;;;;;;2.80;2.17;;;27.00;51.70;;;;;;5014314;28;20448;-74
2023/07/08 07:35:14;;;;;;;3.00;2.07;;;27.10;52.90;;;;;;5014439;28;20858;-74
2023/07/08 07:37:42;;;;;;;3.33;2.23;;;27.10;51.60;;;;;;5014556;28;20524;-74
2023/07/08 07:40:12;;;;;;;3.10;2.50;;;27.00;53.30;;;;;;5014493;28;20444;-74
2023/07/08 07:42:39;;;;;;;2.80;2.00;;;27.00;52.10;;;;;;5014398;28;20488;-74
2023/07/08 07:45:08;;;;;;;3.17;2.60;;;27.00;52.40;;;;;;5014391;28;20469;-74
2023/07/08 07:47:35;;;;;;;2.80;2.43;;;27.00;52.30;;;;;;5014412;28;20448;-74
2023/07/08 07:50:02;;;;;;;2.63;2.00;;;27.10;52.60;;;;;;5014346;28;20444;-74
2023/07/08 07:52:29;;;;;;;3.13;2.57;;;27.10;52.40;;;;;;5014318;28;20450;-74
2023/07/08 07:54:56;;;;;;;3.10;2.43;;;27.20;52.40;;;;;;5014107;28;20506;-74
2023/07/08 07:57:23;;;;;;;2.97;2.13;;;27.30;52.50;;;;;;5014257;28;20448;-74
2023/07/08 07:59:50;;;;;;;2.63;1.93;;;27.30;52.90;;;;;;5014203;28;20460;-74
2023/07/08 08:02:19;;;;;;;2.60;1.90;;;27.40;53.60;;;;;;5013869;28;20943;-74
2023/07/08 08:04:46;;;;;;;3.07;2.27;;;27.60;53.90;;;;;;5013729;28;20987;-74
2023/07/08 08:07:13;;;;;;;2.50;2.13;;;27.60;52.80;;;;;;5013991;28;20967;-74
2023/07/08 08:09:39;;;;;;;2.50;2.00;;;27.60;53.20;;;;;;5014016;28;20495;-74
2023/07/08 08:12:11;;;;;;;2.30;1.60;;;27.60;53.40;;;;;;5013850;28;20448;-74
2023/07/08 08:14:38;;;;;;;3.03;2.20;;;27.70;52.30;;;;;;5013657;28;20495;-74
2023/07/08 08:17:05;;;;;;;5.33;2.10;;;27.60;53.20;;;;;;5013626;28;20452;-74
2023/07/08 08:19:33;;;;;;;2.70;1.67;;;27.20;52.50;;;;;;5014218;28;20448;-74
2023/07/08 08:22:00;;;;;;;4.40;1.97;;;27.10;53.70;;;;;;5013844;28;20451;-74
2023/07/08 08:24:27;;;;;;;2.53;2.00;;;27.30;53.60;;;;;;5013412;28;20460;-74
2023/07/08 08:26:53;;;;;;;2.47;1.87;;;27.40;52.70;;;;;;5013767;28;20510;-74
2023/07/08 08:29:20;;;;;;;2.53;1.93;;;27.50;53.60;;;;;;5013708;28;20498;-74
2023/07/08 08:31:47;;;;;;;3.00;1.83;;;27.60;52.50;;;;;;5013683;28;20494;-74
2023/07/08 08:34:13;;;;;;;2.60;1.60;;;27.70;52.30;;;;;;5013485;28;20484;-74
2023/07/08 08:36:42;;;;;;;2.87;2.00;;;28.10;52.30;;;;;;5013631;28;20452;-73
2023/07/08 08:39:09;;;;;;;2.30;1.60;;;28.50;51.00;;;;;;5013602;28;20456;-74
2023/07/08 08:41:38;;;;;;;3.30;2.27;;;28.80;50.80;;;;;;5013303;28;20495;-71
2023/07/08 08:44:09;;;;;;;4.57;1.90;;;28.80;51.20;;;;;;5013754;28;20492;-73
2023/07/08 08:46:42;;;;;;;2.00;1.60;;;28.90;49.70;;;;;;5013741;28;20448;-73
2023/07/08 08:49:19;;;;;;;3.40;2.40;;;29.20;49.90;;;;;;5013524;28;20440;-73
2023/07/08 08:51:48;;;;;;;2.67;1.80;;;29.30;49.60;;;;;;5013516;28;20505;-73
2023/07/08 08:54:14;;;;;;;2.20;1.33;;;29.40;49.10;;;;;;5013272;28;20492;-74
2023/07/08 08:56:53;;;;;;;2.83;1.67;;;29.80;48.60;;;;;;5013439;28;20471;-73
2023/07/08 08:59:29;;;;;;;2.60;1.70;;;29.80;49.10;;;;;;5013808;28;20487;-73
2023/07/08 09:01:57;;;;;;;2.37;1.43;;;29.70;48.90;;;;;;5013425;28;20434;-74
2023/07/08 09:04:29;;;;;;;2.20;1.40;;;29.60;48.30;;;;;;5013515;28;20468;-73
2023/07/08 09:07:07;;;;;;;3.00;2.00;;;29.90;47.70;;;;;;5013382;28;20519;-74
2023/07/08 09:09:39;;;;;;;2.57;1.87;;;29.50;47.50;;;;;;5013332;28;20436;-73
2023/07/08 09:12:10;;;;;;;2.80;1.60;;;29.20;48.30;;;;;;5013356;28;20433;-73
2023/07/08 09:14:38;;;;;;;1.90;1.30;;;28.90;48.80;;;;;;5013033;28;20488;-73
2023/07/08 09:17:18;;;;;;;2.60;1.57;;;28.60;50.30;;;;;;5012914;28;20802;-73
2023/07/08 09:19:48;;;;;;;2.80;1.83;;;28.50;49.50;;;;;;5013278;28;20436;-74
2023/07/08 09:22:20;;;;;;;2.30;1.70;;;28.50;49.20;;;;;;5013238;28;20432;-73
2023/07/08 09:24:52;;;;;;;2.50;1.70;;;28.00;49.90;;;;;;5013180;28;20522;-76
2023/07/08 09:27:19;;;;;;;2.90;1.90;;;27.70;51.30;;;;;;5013282;28;20487;-77
2023/07/08 09:29:46;;;;;;;3.13;1.70;;;27.70;51.50;;;;;;5013104;28;20456;-76
2023/07/08 09:32:17;;;;;;;2.20;1.80;;;27.90;51.70;;;;;;5013134;28;20503;-76
2023/07/08 09:34:47;;;;;;;2.07;1.43;;;28.20;51.10;;;;;;5012962;28;20591;-77
2023/07/08 09:37:27;;;;;;;3.40;1.40;;;28.30;49.80;;;;;;5013244;28;20424;-78
2023/07/08 09:39:55;;;;;;;2.10;1.80;;;28.40;49.60;;;;;;5013905;28;20487;-77
2023/07/08 09:42:23;;;;;;;2.50;1.73;;;28.40;49.60;;;;;;5012803;28;20937;-74
2023/07/08 09:44:57;;;;;;;2.20;1.80;;;28.10;50.90;;;;;;5012997;28;20522;-73
2023/07/08 09:47:28;;;;;;;2.60;1.90;;;28.10;51.10;;;;;;5013011;28;20511;-74
2023/07/08 09:49:55;;;;;;;2.67;1.60;;;28.30;51.20;;;;;;5013085;28;20527;-74
2023/07/08 09:52:22;;;;;;;2.50;1.63;;;28.30;51.30;;;;;;5013079;28;20511;-73
2023/07/08 09:54:51;;;;;;;2.60;1.70;;;28.20;50.10;;;;;;5015205;28;20903;-72
2023/07/08 09:57:30;;;;;;;2.73;1.70;;;28.40;49.70;;;;;;5016509;28;20494;-74
2023/07/08 10:00:02;;;;;;;2.50;1.70;;;28.70;50.00;;;;;;5016409;28;20440;-73
2023/07/08 10:02:32;;;;;;;2.90;1.70;;;28.30;49.80;;;;;;5016444;28;20464;-74
2023/07/08 10:05:02;;;;;;;2.70;1.63;;;27.90;50.40;;;;;;5017001;28;20464;-73
2023/07/08 10:07:31;;;;;;;2.87;1.40;;;27.40;51.60;;;;;;5016226;28;20455;-72
2023/07/08 10:10:03;;;;;;;2.30;1.40;;;27.30;52.20;;;;;;5016255;28;20540;-73
2023/07/08 10:12:31;;;;;;;2.43;1.47;;;27.30;51.90;;;;;;5015736;28;20833;-73
2023/07/08 10:15:02;;;;;;;2.70;1.73;;;27.20;52.00;;;;;;5023814;23;20492;-75
2023/07/08 10:17:30;;;;;;;3.00;1.43;;;27.30;53.40;;;;;;4996691;28;20461;-72
2023/07/08 10:19:57;;;;;;;2.83;1.77;;;27.60;52.30;;;;;;4996442;28;20476;-71
2023/07/08 10:22:39;;;;;;;2.63;1.40;;;27.70;51.90;;;;;;4996436;28;20820;-71
2023/07/08 10:25:17;;;;;;;2.83;1.83;;;28.00;51.10;;;;;;5011731;28;20519;-72
2023/07/08 10:27:50;;;;;;;2.83;1.80;;;28.30;50.40;;;;;;5015978;28;20468;-72
2023/07/08 10:30:22;;;;;;;3.00;1.50;;;28.10;50.50;;;;;;5016530;28;20432;-72
2023/07/08 10:33:08;;;;;;;2.10;1.30;;;28.10;50.70;;;;;;5015842;28;20478;-71
2023/07/08 10:35:37;;;;;;;2.23;1.43;;;28.30;50.50;;;;;;5015629;28;20491;-71
2023/07/08 10:38:19;;;;;;;1.90;1.10;;;28.40;50.30;;;;;;5015725;28;20502;-71
2023/07/08 10:40:50;;;;;;;2.20;1.50;;;28.50;50.90;;;;;;5015694;28;20436;-71
2023/07/08 10:43:31;;;;;;;2.20;1.53;;;28.80;50.30;;;;;;5015822;28;20498;-71
2023/07/08 10:46:11;;;;;;;3.30;2.00;;;29.20;50.20;;;;;;5015386;28;20425;-71
2023/07/08 10:48:56;;;;;;;2.10;1.40;;;29.50;48.80;;;;;;5015320;28;20828;-69
2023/07/08 10:51:33;;;;;;;2.10;1.27;;;29.30;49.50;;;;;;5015497;28;20495;-70
2023/07/08 10:54:24;;;;;;;2.00;1.43;;;29.40;48.70;;;;;;5015410;28;20476;-74
2023/07/08 10:56:57;;;;;;;2.00;1.53;;;29.20;49.00;;;;;;5014916;28;21051;-74
2023/07/08 10:59:39;;;;;;;2.63;1.63;;;29.30;49.50;;;;;;5015402;28;20433;-74
2023/07/08 11:02:47;;;;;;;2.13;1.43;;;29.40;49.90;;;;;;5015284;28;20491;-75
2023/07/08 11:05:28;;;;;;;3.00;2.33;;;29.20;49.50;;;;;;4988581;28;20526;-74
2023/07/08 11:08:00;;;;;;;2.80;1.50;;;29.10;50.10;;;;;;5015208;28;20428;-75
2023/07/08 11:10:35;;;;;;;3.40;1.70;;;29.00;49.80;;;;;;5015322;28;20448;-75
2023/07/08 11:13:07;;;;;;;2.20;1.60;;;28.70;49.60;;;;;;5014871;28;20844;-74
2023/07/08 11:15:43;;;;;;;2.43;1.30;;;28.60;50.20;;;;;;5014636;28;20945;-73
2023/07/08 11:18:17;;;;;;;2.27;1.20;;;28.50;50.70;;;;;;5015095;28;20444;-74
2023/07/08 11:20:48;;;;;;;4.10;1.70;;;28.70;51.50;;;;;;5014622;28;20432;-74
2023/07/08 11:23:25;;;;;;;3.37;1.60;;;29.00;51.30;;;;;;5014758;28;20447;-75
2023/07/08 11:26:02;;;;;;;2.30;1.60;;;29.00;50.90;;;;;;5015678;28;20436;-76
2023/07/08 11:28:30;;;;;;;2.43;1.47;;;29.10;49.90;;;;;;5014908;28;20436;-75
2023/07/08 11:31:01;;;;;;;2.70;1.53;;;29.40;50.20;;;;;;5014609;28;20515;-75
2023/07/08 11:33:31;;;;;;;2.00;1.50;;;29.60;50.50;;;;;;5014591;28;20441;-75
2023/07/08 11:35:59;;;;;;;2.10;1.30;;;29.70;48.90;;;;;;5014807;28;20487;-75
2023/07/08 11:38:26;;;;;;;3.03;1.53;;;29.60;49.60;;;;;;5014521;28;20490;-75
2023/07/08 11:40:56;;;;;;;2.30;1.63;;;29.80;48.60;;;;;;5014259;28;20455;-75
2023/07/08 11:43:25;;;;;;;3.07;1.70;;;29.90;49.10;;;;;;5014485;28;20440;-75
2023/07/08 11:45:56;;;;;;;2.07;1.33;;;30.20;48.30;;;;;;5014142;28;20851;-75
2023/07/08 11:48:26;;;;;;;2.60;1.70;;;30.20;48.10;;;;;;5014399;28;20455;-76
2023/07/08 11:50:54;;;;;;;2.20;1.60;;;30.20;47.70;;;;;;5014398;28;20429;-75
2023/07/08 11:53:37;;;;;;;2.30;1.60;;;30.10;47.90;;;;;;5014287;28;20901;-75
2023/07/08 11:56:18;;;;;;;2.10;1.30;;;30.30;48.10;;;;;;5014312;28;20476;-75
2023/07/08 11:58:58;;;;;;;4.60;1.83;;;30.50;46.90;;;;;;5014329;28;20464;-76
2023/07/08 12:01:29;;;;;;;2.40;1.53;;;30.80;47.90;;;;;;5014843;28;20972;-75
2023/07/08 12:04:01;;;;;;;3.30;1.50;;;31.10;46.80;;;;;;5014133;28;20476;-76
2023/07/08 12:06:44;;;;;;;3.23;1.67;;;31.10;46.30;;;;;;5014117;28;20895;-76
2023/07/08 12:09:24;;;;;;;2.07;1.50;;;30.70;46.80;;;;;;5014096;28;20866;-76
2023/07/08 12:11:55;;;;;;;2.20;1.70;;;30.80;46.90;;;;;;5014084;28;20448;-75
2023/07/08 12:14:23;;;;;;;3.53;1.83;;;30.90;46.70;;;;;;5013824;28;20476;-76
2023/07/08 12:16:51;;;;;;;2.67;1.30;;;31.30;47.00;;;;;;5013314;28;20484;-76
2023/07/08 12:19:21;;;;;;;2.40;1.40;;;31.40;45.80;;;;;;5013901;28;20448;-76
2023/07/08 12:21:48;;;;;;;2.73;1.70;;;31.40;45.60;;;;;;5013874;28;20452;-75
2023/07/08 12:24:16;;;;;;;2.10;1.23;;;31.80;45.40;;;;;;5013879;28;20468;-76
2023/07/08 12:26:43;;;;;;;2.23;1.40;;;31.90;44.50;;;;;;5013808;28;20444;-75
2023/07/08 12:29:12;;;;;;;2.30;1.40;;;31.90;44.10;;;;;;5013739;28;20494;-75
2023/07/08 12:31:39;;;;;;;1.83;1.23;;;31.90;44.50;;;;;;5013722;28;20452;-76
2023/07/08 12:34:13;;;;;;;3.33;2.10;;;31.70;44.30;;;;;;5013594;28;20472;-76
2023/07/08 12:36:40;;;;;;;1.90;1.40;;;31.80;46.20;;;;;;5013634;28;20567;-75
2023/07/08 12:39:09;;;;;;;1.90;1.40;;;31.60;43.90;;;;;;5013646;28;20450;-75
2023/07/08 12:41:36;;;;;;;3.87;1.63;;;31.50;45.20;;;;;;5013279;28;21015;-74
2023/07/08 12:44:06;;;;;;;1.70;1.10;;;31.70;44.80;;;;;;5013563;28;20477;-75
2023/07/08 12:46:33;;;;;;;2.70;1.40;;;32.00;43.80;;;;;;5014418;28;20428;-75
2023/07/08 12:49:00;;;;;;;2.60;1.17;;;31.80;44.60;;;;;;5013535;28;20452;-75
2023/07/08 12:51:28;;;;;;;2.13;1.40;;;31.90;44.00;;;;;;5013524;28;20448;-75
2023/07/08 12:53:55;;;;;;;3.30;1.40;;;32.00;44.60;;;;;;5013447;28;20472;-74
2023/07/08 12:56:24;;;;;;;4.93;1.53;;;31.90;44.20;;;;;;5013383;28;20510;-75
2023/07/08 12:58:55;;;;;;;2.80;1.67;;;32.10;43.90;;;;;;5013325;28;20988;-75
2023/07/08 13:01:26;;;;;;;2.20;1.37;;;32.30;43.50;;;;;;5013109;28;20906;-75
2023/07/08 13:03:56;;;;;;;1.80;1.30;;;32.30;42.90;;;;;;5013017;28;20888;-75
2023/07/08 13:06:25;;;;;;;1.90;1.37;;;32.40;43.60;;;;;;5013346;28;20452;-75
2023/07/08 13:08:56;;;;;;;1.90;1.43;;;32.70;43.30;;;;;;5013624;28;20449;-75
2023/07/08 13:11:23;;;;;;;4.43;1.60;;;32.80;42.20;;;;;;5013313;28;20456;-72
2023/07/08 13:13:54;;;;;;;1.70;1.20;;;32.60;43.10;;;;;;5012974;28;20586;-75
2023/07/08 13:16:21;;;;;;;1.83;1.10;;;32.50;42.40;;;;;;5013203;28;20481;-75
2023/07/08 13:18:49;;;;;;;2.10;1.50;;;32.40;41.70;;;;;;5013257;28;20531;-74
2023/07/08 13:21:16;;;;;;;2.00;1.40;;;32.60;43.10;;;;;;5013234;28;20448;-74
2023/07/08 13:23:44;;;;;;;1.70;1.27;;;33.10;41.50;;;;;;5013144;28;20469;-74
2023/07/08 13:26:16;;;;;;;2.00;1.13;;;33.30;40.90;;;;;;5012908;28;20929;-74
2023/07/08 13:28:45;;;;;;;2.37;1.47;;;33.50;41.40;;;;;;5013935;28;20864;-74
2023/07/08 13:31:17;;;;;;;2.00;1.40;;;33.50;41.50;;;;;;5016659;28;20937;-75
2023/07/08 13:33:47;;;;;;;2.03;1.20;;;33.10;38.90;;;;;;5017060;28;20468;-74
2023/07/08 13:36:17;;;;;;;2.20;1.60;;;33.10;39.40;;;;;;5017638;28;20518;-74
2023/07/08 13:38:45;;;;;;;2.20;1.23;;;32.90;41.00;;;;;;5016467;28;21020;-75
2023/07/08 13:41:12;;;;;;;1.93;1.30;;;33.00;40.90;;;;;;5016782;28;20518;-74
2023/07/08 13:43:41;;;;;;;2.10;1.30;;;33.00;40.00;;;;;;5016690;28;20538;-74
2023/07/08 13:46:29;;;;;;;1.90;1.03;;;32.90;40.20;;;;;;5016611;28;20531;-74
2023/07/08 13:48:56;;;;;;;2.33;1.27;;;32.80;39.90;;;;;;5017486;28;20431;-74
2023/07/08 13:51:24;;;;;;;2.47;1.10;;;32.80;39.30;;;;;;5016581;28;20448;-74
2023/07/08 13:53:53;;;;;;;2.23;1.30;;;32.70;40.70;;;;;;5016472;28;20464;-75
2023/07/08 13:56:22;;;;;;;1.80;1.30;;;32.50;40.20;;;;;;5016106;28;21008;-75
2023/07/08 13:58:53;;;;;;;2.20;1.60;;;32.30;40.60;;;;;;5016443;28;20502;-75
2023/07/08 14:01:23;;;;;;;2.00;1.03;;;32.30;40.60;;;;;;5016426;28;20436;-75
2023/07/08 14:03:51;;;;;;;2.00;1.13;;;32.70;41.00;;;;;;5015984;28;21031;-72
2023/07/08 14:06:21;;;;;;;2.13;1.13;;;32.50;41.50;;;;;;5016320;28;20452;-74
2023/07/08 14:08:48;;;;;;;1.90;1.33;;;32.80;41.70;;;;;;5015953;28;20848;-74
2023/07/08 14:11:15;;;;;;;1.77;1.17;;;32.90;40.60;;;;;;5016228;28;20552;-75
2023/07/08 14:13:41;;;;;;;2.27;1.10;;;32.80;40.10;;;;;;5015920;28;20487;-75
2023/07/08 14:16:21;;;;;;;2.47;1.20;;;32.40;41.10;;;;;;5015914;28;20464;-75
2023/07/08 14:18:48;;;;;;;2.27;1.20;;;32.50;40.50;;;;;;5015867;28;20906;-74
2023/07/08 14:21:14;;;;;;;1.90;1.13;;;32.50;40.20;;;;;;5016028;28;20456;-74
2023/07/08 14:23:41;;;;;;;2.03;1.20;;;32.60;42.10;;;;;;5015997;28;20477;-75
2023/07/08 14:26:10;;;;;;;1.70;1.10;;;32.60;39.70;;;;;;5015946;28;20459;-74
2023/07/08 14:28:37;;;;;;;1.80;1.07;;;32.40;40.40;;;;;;5015866;28;20449;-74
2023/07/08 14:31:03;;;;;;;2.00;1.07;;;32.60;40.40;;;;;;5015744;28;20448;-75
2023/07/08 14:33:31;;;;;;;2.20;1.23;;;32.40;40.70;;;;;;5015714;28;20452;-75
2023/07/08 14:35:58;;;;;;;2.47;1.30;;;32.30;40.70;;;;;;5015669;28;20498;-74
2023/07/08 14:38:25;;;;;;;2.10;1.30;;;32.30;41.10;;;;;;5015561;28;20456;-75
2023/07/08 14:40:51;;;;;;;2.73;1.60;;;32.40;41.00;;;;;;5015025;28;20483;-74
2023/07/08 14:43:21;;;;;;;2.00;1.27;;;32.60;41.20;;;;;;5015518;28;20445;-75
2023/07/08 14:45:51;;;;;;;2.00;1.20;;;32.80;40.40;;;;;;5015782;28;20499;-75
2023/07/08 14:48:18;;;;;;;1.97;1.03;;;32.70;40.70;;;;;;5015435;28;20448;-75
2023/07/08 14:50:47;;;;;;;1.80;1.20;;;32.90;41.00;;;;;;5015463;28;20448;-74
2023/07/08 14:53:15;;;;;;;1.70;1.30;;;33.10;40.30;;;;;;5014982;28;20841;-75
2023/07/08 14:55:42;;;;;;;2.00;1.20;;;33.30;39.60;;;;;;5015658;28;20444;-75
2023/07/08 14:58:18;;;;;;;3.00;1.47;;;33.30;39.80;;;;;;5015069;28;20957;-74
2023/07/08 15:00:44;;;;;;;2.27;1.27;;;33.50;40.40;;;;;;5015351;28;20436;-74
2023/07/08 15:03:11;;;;;;;2.00;1.50;;;33.90;39.60;;;;;;5015363;28;20440;-75
2023/07/08 15:05:38;;;;;;;1.80;1.03;;;34.00;39.20;;;;;;5015202;28;20444;-75
2023/07/08 15:08:06;;;;;;;3.30;1.20;;;33.90;39.50;;;;;;5015192;28;20440;-75
2023/07/08 15:10:34;;;;;;;2.33;1.37;;;33.80;39.10;;;;;;5015100;28;20444;-75
2023/07/08 15:13:01;;;;;;;1.93;1.23;;;33.80;38.60;;;;;;5015089;28;20447;-75
2023/07/08 15:15:31;;;;;;;2.37;1.30;;;34.00;39.10;;;;;;5014653;28;20480;-75
2023/07/08 15:17:58;;;;;;;2.23;1.10;;;34.30;40.30;;;;;;5015017;28;20526;-75
2023/07/08 15:20:26;;;;;;;2.27;1.33;;;34.80;38.10;;;;;;5015058;28;20542;-76
2023/07/08 15:22:53;;;;;;;1.97;1.13;;;35.00;38.30;;;;;;5014986;28;20448;-76
2023/07/08 15:25:21;;;;;;;2.10;1.30;;;34.80;37.70;;;;;;5014833;28;20490;-75
2023/07/08 15:27:51;;;;;;;1.70;1.00;;;34.30;39.20;;;;;;5015114;28;20460;-76
2023/07/08 15:30:20;;;;;;;2.30;1.43;;;34.30;40.40;;;;;;5033006;28;20467;-75
2023/07/08 15:32:46;;;;;;;2.20;1.57;;;33.90;40.00;;;;;;5030221;28;20866;-75
2023/07/08 15:35:15;;;;;;;2.30;1.30;;;33.70;40.30;;;;;;5014783;28;20470;-73
2023/07/08 15:37:43;;;;;;;2.87;1.50;;;33.50;41.50;;;;;;5014836;28;20530;-74
2023/07/08 15:40:13;;;;;;;2.00;1.33;;;33.50;40.70;;;;;;5014610;28;20535;-73
2023/07/08 15:42:43;;;;;;;1.83;1.13;;;33.50;40.60;;;;;;5014248;28;20972;-73
2023/07/08 15:45:15;;;;;;;2.43;1.57;;;33.10;40.40;;;;;;5014428;28;20522;-73
2023/07/08 15:47:43;;;;;;;2.57;1.33;;;33.30;40.40;;;;;;5014507;28;20425;-73
2023/07/08 15:50:15;;;;;;;2.67;1.30;;;33.30;40.70;;;;;;5014417;28;20444;-73
2023/07/08 15:52:41;;;;;;;1.80;1.20;;;33.30;40.90;;;;;;5013495;28;20454;-73
2023/07/08 15:55:09;;;;;;;2.80;1.40;;;32.90;40.20;;;;;;5014262;28;20561;-73
2023/07/08 15:57:45;;;;;;;2.30;1.40;;;32.50;40.90;;;;;;5014195;28;20480;-73
2023/07/08 16:00:20;;;;;;;2.40;1.23;;;32.10;40.40;;;;;;5013815;28;20903;-73
2023/07/08 16:02:50;;;;;;;2.57;1.50;;;32.00;40.80;;;;;;5014036;28;20442;-73
2023/07/08 16:05:17;;;;;;;2.47;1.60;;;32.00;41.80;;;;;;5013742;28;21051;-73
2023/07/08 16:07:43;;;;;;;2.10;1.40;;;32.00;42.20;;;;;;5013886;28;20444;-73
2023/07/08 16:10:10;;;;;;;2.20;1.40;;;32.20;41.80;;;;;;5013860;28;20956;-73
2023/07/08 16:12:37;;;;;;;2.47;1.60;;;32.30;41.70;;;;;;5013936;28;20476;-73
2023/07/08 16:15:08;;;;;;;1.87;1.30;;;32.60;42.30;;;;;;5016490;23;20505;-76
2023/07/08 16:17:37;;;;;;;1.80;0.93;;;32.70;41.90;;;;;;4994182;28;20841;-76
2023/07/08 16:20:15;;;;;;;1.97;1.17;;;32.70;41.60;;;;;;4994734;28;20488;-76
2023/07/08 16:22:42;;;;;;;1.83;1.10;;;33.00;41.10;;;;;;4994192;28;20433;-77
2023/07/08 16:25:13;;;;;;;2.10;1.40;;;33.20;40.80;;;;;;5008225;28;20526;-73
2023/07/08 16:27:39;;;;;;;2.10;1.40;;;33.40;40.60;;;;;;5013812;28;20480;-73
2023/07/08 16:30:12;;;;;;;2.00;1.37;;;33.30;39.90;;;;;;5013813;28;20444;-73
2023/07/08 16:32:39;;;;;;;2.13;1.20;;;33.40;40.00;;;;;;5014559;28;20433;-72
2023/07/08 16:35:06;;;;;;;2.17;1.10;;;33.60;40.10;;;;;;5013623;28;20463;-73
2023/07/08 16:37:33;;;;;;;4.23;1.50;;;33.60;39.90;;;;;;5013584;28;20480;-73
2023/07/08 16:39:59;;;;;;;2.40;1.60;;;33.70;39.80;;;;;;5013591;28;20857;-72
2023/07/08 16:42:26;;;;;;;1.90;1.30;;;33.80;40.00;;;;;;5013264;28;20873;-73
2023/07/08 16:44:53;;;;;;;2.03;1.40;;;33.70;39.60;;;;;;5013483;28;20468;-73
2023/07/08 16:47:21;;;;;;;3.13;1.40;;;33.80;39.50;;;;;;5013560;28;20440;-74
2023/07/08 16:49:47;;;;;;;2.37;1.40;;;33.60;38.80;;;;;;5013566;28;20497;-73
2023/07/08 16:52:15;;;;;;;2.27;1.30;;;33.80;38.80;;;;;;5013486;28;20448;-72
2023/07/08 16:54:42;;;;;;;1.63;1.10;;;33.90;39.40;;;;;;5013414;28;20471;-73
2023/07/08 16:57:10;;;;;;;2.13;1.50;;;33.80;39.50;;;;;;5013410;28;20526;-73
2023/07/08 16:59:37;;;;;;;2.90;1.20;;;33.30;39.60;;;;;;5013441;28;20455;-73